Time;durP1;ratioP1;P1;durP2;ratioP2;P2;SDS_P1;SDS_P2;PMS_P1;PMS_P2;Temp;Humidity;BMP_temperature;BMP_pressure;BME280_temperature;BME280_humidity;BME280_pressure;Samples;Min_cycle;Max_cycle;Signal;HPM_P1;HPM_P2
2023/10/30 00:01:11;;;;;;;10.30;8.60;;;;;;;11.03;100.00;100236.19;88436;281;137402;-71
2023/10/30 00:03:16;;;;;;;9.80;8.10;;;;;;;11.04;100.00;100226.58;88652;280;22539;-73
2023/10/30 00:05:18;;;;;;;10.10;8.20;;;;;;;11.06;100.00;100228.53;88391;278;137305;-73
2023/10/30 00:07:19;;;;;;;10.50;8.10;;;;;;;11.05;100.00;100229.30;88617;281;22529;-75
2023/10/30 00:09:23;;;;;;;11.20;8.30;;;;;;;11.06;100.00;100226.52;88492;280;137475;-74
2023/10/30 00:11:25;;;;;;;9.90;8.40;;;;;;;11.09;100.00;100229.94;88577;281;22550;-70
2023/10/30 00:13:27;;;;;;;13.00;8.20;;;;;;;11.09;100.00;100231.92;88561;274;137554;-73
2023/10/30 00:15:29;;;;;;;14.00;9.80;;;;;;;11.10;100.00;100239.55;88641;273;22533;-73
2023/10/30 00:17:31;;;;;;;8.50;7.30;;;;;;;11.13;100.00;100244.40;88343;277;138620;-74
2023/10/30 00:19:32;;;;;;;13.80;8.70;;;;;;;11.13;100.00;100239.91;88475;277;22736;-73
2023/10/30 00:21:36;;;;;;;13.80;8.20;;;;;;;11.13;100.00;100240.46;88378;273;137344;-73
2023/10/30 00:23:38;;;;;;;9.60;7.70;;;;;;;11.14;100.00;100235.93;88524;274;22536;-73
2023/10/30 00:25:40;;;;;;;10.10;7.70;;;;;;;11.13;100.00;100234.45;88498;277;137874;-68
2023/10/30 00:27:42;;;;;;;8.30;7.00;;;;;;;11.15;100.00;100234.87;88544;273;22547;-74
2023/10/30 00:29:44;;;;;;;11.10;8.00;;;;;;;11.15;100.00;100230.85;88401;277;137750;-73
2023/10/30 00:31:47;;;;;;;10.70;7.60;;;;;;;11.15;100.00;100227.96;88753;273;22597;-73
2023/10/30 00:33:49;;;;;;;9.10;7.70;;;;;;;11.17;100.00;100233.28;88404;275;138204;-68
2023/10/30 00:35:50;;;;;;;8.50;7.20;;;;;;;11.17;100.00;100231.59;88485;277;22548;-72
2023/10/30 00:37:52;;;;;;;9.10;7.40;;;;;;;11.18;100.00;100234.40;88352;274;138461;-71
2023/10/30 00:39:56;;;;;;;11.60;7.70;;;;;;;11.19;100.00;100233.37;88560;281;22549;-73
2023/10/30 00:41:59;;;;;;;11.10;7.10;;;;;;;11.20;100.00;100234.79;88422;274;136935;-73
2023/10/30 00:44:01;;;;;;;15.40;9.10;;;;;;;11.20;100.00;100232.29;88532;275;23724;-73
2023/10/30 00:46:09;;;;;;;13.00;7.80;;;;;;;11.20;100.00;100227.44;88796;279;22554;-74
2023/10/30 00:48:11;;;;;;;11.50;7.60;;;;;;;11.19;100.00;100222.26;88788;273;137937;-74
2023/10/30 00:50:13;;;;;;;10.50;7.50;;;;;;;11.22;100.00;100226.89;88481;274;22564;-79
2023/10/30 00:52:14;;;;;;;9.50;7.10;;;;;;;11.23;100.00;100228.08;88643;273;138929;-69
2023/10/30 00:54:16;;;;;;;12.80;7.70;;;;;;;11.23;100.00;100225.81;88825;275;22524;-72
2023/10/30 00:56:18;;;;;;;10.20;7.30;;;;;;;11.24;100.00;100227.17;88397;273;137152;-71
2023/10/30 00:58:20;;;;;;;13.00;7.20;;;;;;;11.20;100.00;100224.23;88496;274;24056;-72
2023/10/30 01:00:22;;;;;;;10.00;7.20;;;;;;;11.12;100.00;100210.16;88435;274;137227;-74
2023/10/30 01:02:25;;;;;;;10.10;7.30;;;;;;;11.20;100.00;100225.23;88562;277;22526;-72
2023/10/30 01:04:27;;;;;;;10.90;7.50;;;;;;;11.18;100.00;100222.17;88429;274;136978;-76
2023/10/30 01:06:30;;;;;;;12.30;8.10;;;;;;;11.19;100.00;100221.59;88740;274;24048;-68
2023/10/30 01:08:31;;;;;;;13.30;8.10;;;;;;;11.18;100.00;100216.34;88396;273;137264;-72
2023/10/30 01:10:35;;;;;;;10.50;8.00;;;;;;;11.18;100.00;100219.87;88536;273;24561;-77
2023/10/30 01:12:37;;;;;;;11.60;8.80;;;;;;;11.18;100.00;100222.00;88508;273;137591;-72
2023/10/30 01:14:39;;;;;;;11.90;8.20;;;;;;;11.18;100.00;100217.98;88613;277;25121;-72
2023/10/30 01:16:40;;;;;;;12.20;8.20;;;;;;;11.19;100.00;100217.83;88460;272;137868;-74
2023/10/30 01:18:42;;;;;;;11.30;9.00;;;;;;;11.19;100.00;100218.52;88533;277;22603;-74
2023/10/30 01:20:44;;;;;;;12.10;8.40;;;;;;;11.20;100.00;100218.98;88348;275;137366;-74
2023/10/30 01:22:46;;;;;;;9.10;7.90;;;;;;;11.20;100.00;100221.86;88486;273;22545;-73
2023/10/30 01:24:47;;;;;;;11.60;8.10;;;;;;;11.20;100.00;100226.11;88461;280;136851;-73
2023/10/30 01:26:49;;;;;;;11.00;8.40;;;;;;;11.18;100.00;100225.65;88521;273;22965;-74
2023/10/30 01:28:50;;;;;;;12.30;9.10;;;;;;;11.18;100.00;100224.18;88366;282;137394;-72
2023/10/30 01:30:52;;;;;;;9.90;8.10;;;;;;;11.18;100.00;100226.31;88499;273;24285;-74
2023/10/30 01:32:55;;;;;;;10.40;8.10;;;;;;;11.19;100.00;100221.63;88553;273;138505;-74
2023/10/30 01:34:58;;;;;;;10.40;7.50;;;;;;;11.18;100.00;100222.09;88986;281;22542;-72
2023/10/30 01:36:59;;;;;;;11.10;7.80;;;;;;;11.18;100.00;100219.45;88612;282;138246;-75
2023/10/30 01:39:02;;;;;;;13.50;8.10;;;;;;;11.17;100.00;100215.77;88565;281;23715;-72
2023/10/30 01:41:05;;;;;;;15.60;7.70;;;;;;;11.16;100.00;100215.55;88478;273;137293;-76
2023/10/30 01:43:08;;;;;;;15.00;9.70;;;;;;;11.16;100.00;100218.09;88594;273;24064;-74
2023/10/30 01:45:10;;;;;;;10.60;8.40;;;;;;;11.15;100.00;100218.41;88512;273;137036;-73
2023/10/30 01:47:12;;;;;;;11.50;8.00;;;;;;;11.13;100.00;100217.70;88469;277;22596;-72
2023/10/30 01:49:14;;;;;;;12.60;7.20;;;;;;;11.12;100.00;100216.91;88295;277;138899;-72
2023/10/30 01:51:17;;;;;;;11.90;8.90;;;;;;;11.13;100.00;100214.95;88621;274;25328;-71
2023/10/30 01:53:20;;;;;;;12.10;8.30;;;;;;;11.09;100.00;100207.91;88510;277;137937;-72
2023/10/30 01:55:23;;;;;;;11.80;7.90;;;;;;;11.09;100.00;100208.94;88539;280;25080;-72
2023/10/30 01:57:27;;;;;;;12.60;8.60;;;;;;;11.08;100.00;100212.98;88485;281;138806;-73
2023/10/30 01:59:30;;;;;;;11.30;7.70;;;;;;;11.07;100.00;100209.54;88536;273;22673;-72
2023/10/30 02:01:38;;;;;;;14.10;9.50;;;;;;;11.05;100.00;100210.17;88496;281;137779;-75
2023/10/30 02:03:40;;;;;;;12.40;9.70;;;;;;;11.05;100.00;100210.71;88653;280;24049;-74
2023/10/30 02:05:43;;;;;;;13.20;8.70;;;;;;;11.04;100.00;100206.39;88441;280;137182;-73
2023/10/30 02:07:45;;;;;;;12.80;9.30;;;;;;;11.03;100.00;100204.84;88485;282;25168;-72
2023/10/30 02:09:47;;;;;;;15.50;10.20;;;;;;;11.03;100.00;100200.11;88333;273;139292;-72
2023/10/30 02:11:50;;;;;;;10.90;8.40;;;;;;;11.01;100.00;100194.10;88624;274;26605;-70
2023/10/30 02:13:55;;;;;;;13.00;8.80;;;;;;;11.00;100.00;100191.19;88430;280;137282;-71
2023/10/30 02:15:57;;;;;;;13.50;8.60;;;;;;;11.01;100.00;100183.31;88515;281;25115;-71
2023/10/30 02:17:59;;;;;;;14.70;8.10;;;;;;;11.01;100.00;100185.95;88509;280;137184;-71
2023/10/30 02:20:01;;;;;;;9.40;8.10;;;;;;;11.01;100.00;100183.36;88510;274;25213;-73
2023/10/30 02:22:03;;;;;;;10.50;8.80;;;;;;;10.99;100.00;100179.08;88555;280;25246;-70
2023/10/30 02:24:06;;;;;;;10.80;7.40;;;;;;;10.96;100.00;100180.90;88432;280;137524;-70
2023/10/30 02:26:10;;;;;;;12.60;8.50;;;;;;;10.96;100.00;100186.39;88708;281;22607;-71
2023/10/30 02:28:11;;;;;;;14.50;9.70;;;;;;;10.94;100.00;100195.54;88368;274;137036;-72
2023/10/30 02:30:13;;;;;;;10.40;8.00;;;;;;;10.94;100.00;100188.97;88518;274;25352;-74
2023/10/30 02:32:15;;;;;;;12.40;8.60;;;;;;;10.94;100.00;100186.02;88441;275;137379;-76
2023/10/30 02:34:17;;;;;;;9.90;7.90;;;;;;;10.96;100.00;100183.44;88556;274;22629;-72
2023/10/30 02:36:19;;;;;;;11.70;8.30;;;;;;;10.94;100.00;100181.30;88422;273;137310;-74
2023/10/30 02:38:21;;;;;;;14.80;10.10;;;;;;;10.93;100.00;100182.56;88763;281;22538;-71
2023/10/30 02:40:23;;;;;;;10.80;9.40;;;;;;;10.90;100.00;100184.64;88487;274;139055;-72
2023/10/30 02:42:24;;;;;;;12.40;9.40;;;;;;;10.89;100.00;100182.98;88559;274;23201;-68
2023/10/30 02:44:28;;;;;;;14.50;8.80;;;;;;;10.88;100.00;100183.48;88431;275;137306;-73
2023/10/30 02:46:30;;;;;;;13.40;8.50;;;;;;;10.87;100.00;100186.63;88475;281;23722;-70
2023/10/30 02:48:32;;;;;;;12.60;9.10;;;;;;;10.88;100.00;100188.34;88344;278;137602;-76
2023/10/30 02:50:33;;;;;;;10.80;8.30;;;;;;;10.87;100.00;100187.49;88536;273;23225;-81
2023/10/30 02:52:37;;;;;;;12.90;8.80;;;;;;;10.88;100.00;100190.98;88508;275;138062;-78
2023/10/30 02:54:41;;;;;;;9.70;7.40;;;;;;;10.87;100.00;100196.64;88752;273;25218;-82
2023/10/30 02:56:43;;;;;;;11.00;8.20;;;;;;;10.87;100.00;100192.50;88714;273;138589;-81
2023/10/30 02:58:46;;;;;;;9.50;6.70;;;;;;;10.87;100.00;100198.73;89545;277;22541;-78
2023/10/30 03:00:48;;;;;;;10.10;7.40;;;;;;;10.86;100.00;100203.32;89643;275;136468;-74
2023/10/30 03:02:50;;;;;;;12.50;8.10;;;;;;;10.87;100.00;100209.80;89206;273;22514;-80
2023/10/30 03:04:51;;;;;;;10.70;7.20;;;;;;;10.88;100.00;100205.58;88888;274;136887;-81
2023/10/30 03:06:53;;;;;;;13.50;8.50;;;;;;;10.88;100.00;100205.05;88640;273;25307;-80
2023/10/30 03:09:00;;;;;;;11.90;8.10;;;;;;;10.87;100.00;100202.49;88451;275;138800;-77
2023/10/30 03:11:02;;;;;;;11.00;7.60;;;;;;;10.86;100.00;100195.64;88516;277;22704;-80
2023/10/30 03:13:04;;;;;;;11.30;7.80;;;;;;;10.86;100.00;100185.54;88483;273;137355;-77
2023/10/30 03:15:08;;;;;;;12.50;9.20;;;;;;;10.84;100.00;100180.23;88522;282;24328;-75
2023/10/30 03:17:10;;;;;;;12.30;7.70;;;;;;;10.85;100.00;100173.92;88491;281;137426;-77
2023/10/30 03:19:12;;;;;;;11.20;7.70;;;;;;;10.83;100.00;100173.59;88573;273;22615;-76
2023/10/30 03:21:14;;;;;;;9.70;7.30;;;;;;;10.83;100.00;100172.93;88563;277;137354;-77
2023/10/30 03:23:17;;;;;;;13.00;7.90;;;;;;;10.82;100.00;100176.66;88540;280;22536;-78
2023/10/30 03:25:19;;;;;;;10.00;7.10;;;;;;;10.81;100.00;100181.04;88567;273;139008;-74
2023/10/30 03:27:21;;;;;;;9.60;7.90;;;;;;;10.79;100.00;100182.54;88605;274;25176;-76
2023/10/30 03:29:23;;;;;;;12.70;8.30;;;;;;;10.79;100.00;100188.23;88490;281;137133;-75
2023/10/30 03:31:28;;;;;;;8.60;7.70;;;;;;;10.77;100.00;100188.42;88555;281;26878;-75
2023/10/30 03:33:29;;;;;;;11.40;7.30;;;;;;;10.76;100.00;100189.36;88509;280;137125;-79
2023/10/30 03:35:36;;;;;;;9.00;7.20;;;;;;;10.76;100.00;100183.38;88593;280;22542;-81
2023/10/30 03:37:38;;;;;;;12.60;7.80;;;;;;;10.76;100.00;100184.87;88708;280;137293;-76
2023/10/30 03:39:40;;;;;;;10.70;7.80;;;;;;;10.77;100.00;100182.23;89247;280;24490;-76
2023/10/30 03:41:44;;;;;;;15.00;8.20;;;;;;;10.77;100.00;100178.88;89505;280;137361;-79
2023/10/30 03:43:47;;;;;;;10.10;7.40;;;;;;;10.78;100.00;100176.27;89332;277;22720;-74
2023/10/30 03:45:48;;;;;;;9.40;7.60;;;;;;;10.77;100.00;100174.12;89039;282;138840;-73
2023/10/30 03:47:50;;;;;;;9.70;6.90;;;;;;;10.77;100.00;100172.48;89224;275;25214;-79
2023/10/30 03:49:52;;;;;;;8.00;6.00;;;;;;;10.79;100.00;100172.78;88661;279;137016;-75
2023/10/30 03:51:54;;;;;;;8.60;6.80;;;;;;;10.80;100.00;100173.98;88636;279;22544;-78
2023/10/30 03:53:58;;;;;;;9.60;7.10;;;;;;;10.76;100.00;100164.02;88563;274;136945;-79
2023/10/30 03:56:06;;;;;;;7.60;6.20;;;;;;;10.83;100.00;100175.23;88586;277;25212;-80
2023/10/30 03:58:07;;;;;;;10.00;6.40;;;;;;;10.83;100.00;100172.80;88607;273;24021;-78
2023/10/30 04:00:10;;;;;;;10.20;7.10;;;;;;;10.77;100.00;100163.05;88439;273;137520;-77
2023/10/30 04:02:12;;;;;;;10.90;6.60;;;;;;;10.84;100.00;100170.35;88389;275;22724;-76
2023/10/30 04:04:14;;;;;;;8.00;7.20;;;;;;;10.86;100.00;100173.28;88540;281;138465;-80
2023/10/30 04:06:17;;;;;;;8.00;6.50;;;;;;;10.87;100.00;100171.57;88592;274;25227;-79
2023/10/30 04:08:19;;;;;;;11.60;6.60;;;;;;;10.89;100.00;100167.08;88547;277;136925;-80
2023/10/30 04:10:20;;;;;;;10.90;7.20;;;;;;;10.90;100.00;100170.02;88557;277;24511;-77
2023/10/30 04:12:22;;;;;;;10.10;7.50;;;;;;;10.93;100.00;100169.40;88408;274;137453;-84
2023/10/30 04:14:24;;;;;;;7.90;6.60;;;;;;;10.92;100.00;100173.08;88598;278;22536;-80
2023/10/30 04:16:27;;;;;;;10.20;7.60;;;;;;;10.94;100.00;100169.80;88177;274;524859;-80
2023/10/30 04:18:30;;;;;;;10.50;6.40;;;;;;;10.95;100.00;100166.98;89280;280;22492;-80
2023/10/30 04:20:32;;;;;;;10.70;7.20;;;;;;;10.97;100.00;100165.68;88971;281;138753;-75
2023/10/30 04:22:34;;;;;;;9.00;6.60;;;;;;;10.98;100.00;100163.73;89639;281;25102;-79
2023/10/30 04:24:36;;;;;;;12.20;7.80;;;;;;;10.99;100.00;100162.14;89740;277;136643;-80
2023/10/30 04:26:38;;;;;;;11.60;6.80;;;;;;;11.00;100.00;100169.56;88816;283;22645;-72
2023/10/30 04:28:40;;;;;;;8.10;6.90;;;;;;;11.00;100.00;100173.92;88565;277;137333;-82
2023/10/30 04:30:42;;;;;;;10.90;7.60;;;;;;;11.01;100.00;100172.81;88579;280;22542;-73
2023/10/30 04:32:44;;;;;;;14.20;7.00;;;;;;;10.99;100.00;100171.25;88600;277;137357;-81
2023/10/30 04:34:46;;;;;;;9.10;6.90;;;;;;;10.98;100.00;100168.57;88602;281;22545;-77
2023/10/30 04:36:47;;;;;;;11.40;7.20;;;;;;;10.97;100.00;100166.23;88519;281;137290;-79
2023/10/30 04:38:52;;;;;;;12.90;7.20;;;;;;;10.94;100.00;100162.83;88574;281;24098;-80
2023/10/30 04:40:54;;;;;;;11.50;6.80;;;;;;;10.91;100.00;100163.92;88395;281;137881;-77
2023/10/30 04:42:55;;;;;;;9.10;6.60;;;;;;;10.88;100.00;100157.55;88520;279;25213;-81
2023/10/30 04:44:57;;;;;;;9.20;6.30;;;;;;;10.88;100.00;100156.85;88433;281;138097;-77
2023/10/30 04:46:59;;;;;;;10.10;7.10;;;;;;;10.86;100.00;100157.95;88599;281;22526;-79
2023/10/30 04:49:00;;;;;;;8.80;6.60;;;;;;;10.86;100.00;100155.29;88462;281;137182;-80
2023/10/30 04:51:02;;;;;;;10.00;7.20;;;;;;;10.87;100.00;100153.27;88568;282;25189;-75
2023/10/30 04:53:04;;;;;;;10.80;7.90;;;;;;;10.88;100.00;100155.13;88610;281;137563;-75
2023/10/30 04:55:06;;;;;;;9.30;6.20;;;;;;;10.89;100.00;100155.80;88516;273;22520;-75
2023/10/30 04:57:08;;;;;;;12.10;7.20;;;;;;;10.90;100.00;100154.08;88379;279;139314;-77
2023/10/30 04:59:10;;;;;;;11.00;7.30;;;;;;;10.90;100.00;100153.69;88541;281;25195;-72
2023/10/30 05:01:13;;;;;;;9.70;7.90;;;;;;;10.91;100.00;100157.20;88336;281;139046;-72
2023/10/30 05:03:14;;;;;;;12.00;9.00;;;;;;;10.90;100.00;100154.27;88374;280;25206;-72
2023/10/30 05:05:16;;;;;;;9.50;6.60;;;;;;;10.90;100.00;100140.86;88532;274;138826;-78
2023/10/30 05:07:18;;;;;;;12.50;6.70;;;;;;;10.93;100.00;100146.46;88890;273;22872;-76
2023/10/30 05:09:20;;;;;;;11.20;6.40;;;;;;;10.94;100.00;100143.88;88355;274;138756;-73
2023/10/30 05:11:22;;;;;;;11.70;6.30;;;;;;;10.94;100.00;100145.04;88521;277;24049;-78
2023/10/30 05:13:23;;;;;;;10.30;7.00;;;;;;;10.94;100.00;100140.56;88304;273;137289;-76
2023/10/30 05:15:25;;;;;;;9.10;6.70;;;;;;;10.96;100.00;100136.33;88473;273;22534;-76
2023/10/30 05:17:27;;;;;;;11.20;6.70;;;;;;;10.96;100.00;100140.40;88345;273;137318;-74
2023/10/30 05:19:29;;;;;;;11.00;7.30;;;;;;;10.99;100.00;100138.17;88417;273;22535;-76
2023/10/30 05:21:31;;;;;;;11.00;7.10;;;;;;;11.04;100.00;100140.13;88341;277;137434;-75
2023/10/30 05:23:33;;;;;;;9.90;6.50;;;;;;;11.06;100.00;100142.23;88417;273;22564;-74
2023/10/30 05:25:35;;;;;;;8.20;6.00;;;;;;;11.13;100.00;100145.68;88317;273;138174;-76
2023/10/30 05:27:44;;;;;;;8.40;6.00;;;;;;;11.23;100.00;100145.45;88388;273;25136;-76
2023/10/30 05:29:47;;;;;;;9.40;6.20;;;;;;;11.29;100.00;100136.36;88243;273;137267;-73
2023/10/30 05:31:49;;;;;;;8.50;6.40;;;;;;;11.47;100.00;100150.95;88433;274;22552;-77
2023/10/30 05:33:51;;;;;;;9.80;7.00;;;;;;;11.59;100.00;100153.63;88643;273;139121;-79
2023/10/30 05:35:54;;;;;;;7.70;6.40;;;;;;;11.68;100.00;100152.13;88886;275;22521;-77
2023/10/30 05:37:56;;;;;;;7.70;6.10;;;;;;;11.75;100.00;100154.63;88466;272;136548;-72
2023/10/30 05:39:58;;;;;;;9.00;6.60;;;;;;;11.79;100.00;100152.86;88406;273;22630;-78
2023/10/30 05:42:01;;;;;;;11.80;5.80;;;;;;;11.81;100.00;100155.91;88342;273;138165;-80
2023/10/30 05:44:04;;;;;;;10.50;6.30;;;;;;;11.82;100.00;100152.39;88354;273;137578;-68
2023/10/30 05:46:06;;;;;;;7.70;5.20;;;;;;;11.83;100.00;100157.32;88960;273;22899;-80
2023/10/30 05:48:07;;;;;;;8.10;5.50;;;;;;;11.82;100.00;100157.20;88348;273;138710;-74
2023/10/30 05:50:09;;;;;;;8.40;6.50;;;;;;;11.82;100.00;100163.85;88456;277;25163;-75
2023/10/30 05:52:11;;;;;;;7.50;5.80;;;;;;;11.83;100.00;100161.13;88454;273;137385;-75
2023/10/30 05:54:13;;;;;;;8.00;5.90;;;;;;;11.84;100.00;100165.78;88505;281;24410;-75
2023/10/30 05:56:15;;;;;;;9.40;5.90;;;;;;;11.89;100.00;100166.52;88373;273;137533;-71
2023/10/30 05:58:17;;;;;;;8.00;6.20;;;;;;;11.93;100.00;100166.42;88459;273;26161;-73
2023/10/30 06:00:19;;;;;;;8.50;6.00;;;;;;;11.96;100.00;100168.23;88302;273;137051;-77
2023/10/30 06:02:22;;;;;;;12.00;6.10;;;;;;;12.02;100.00;100167.84;88319;275;22557;-74
2023/10/30 06:04:24;;;;;;;9.60;6.70;;;;;;;12.06;100.00;100169.20;88236;273;138678;-73
2023/10/30 06:06:26;;;;;;;9.10;6.00;;;;;;;12.12;100.00;100173.82;88504;281;25080;-72
2023/10/30 06:08:28;;;;;;;10.10;5.50;;;;;;;12.19;100.00;100175.93;88229;273;137516;-75
2023/10/30 06:10:29;;;;;;;11.90;6.80;;;;;;;12.24;100.00;100179.64;88729;273;22624;-76
2023/10/30 06:12:31;;;;;;;8.10;5.90;;;;;;;12.32;100.00;100179.45;88658;273;138149;-72
2023/10/30 06:14:34;;;;;;;9.20;6.40;;;;;;;12.41;100.00;100179.66;88448;273;22537;-71
2023/10/30 06:16:35;;;;;;;9.50;6.90;;;;;;;12.48;100.00;100171.36;88387;272;137044;-73
2023/10/30 06:18:37;;;;;;;7.60;5.60;;;;;;;12.55;100.00;100171.61;88480;272;25280;-75
2023/10/30 06:20:40;;;;;;;11.20;6.00;;;;;;;12.60;100.00;100170.46;88412;273;137496;-76
2023/10/30 06:22:42;;;;;;;8.10;6.10;;;;;;;12.63;100.00;100169.09;88427;273;22481;-76
2023/10/30 06:24:43;;;;;;;8.70;5.60;;;;;;;12.67;100.00;100165.77;88301;274;137169;-76
2023/10/30 06:26:45;;;;;;;8.40;5.50;;;;;;;12.71;100.00;100165.89;88555;273;25173;-78
2023/10/30 06:28:47;;;;;;;7.40;5.30;;;;;;;12.72;100.00;100168.69;88512;273;140961;-77
2023/10/30 06:30:50;;;;;;;12.50;6.60;;;;;;;12.75;100.00;100171.24;88721;273;22603;-73
2023/10/30 06:32:52;;;;;;;7.10;5.50;;;;;;;12.72;100.00;100165.48;88523;282;136781;-70
2023/10/30 06:34:54;;;;;;;7.60;6.30;;;;;;;12.74;100.00;100163.59;88518;273;22548;-72
2023/10/30 06:36:56;;;;;;;8.20;5.90;;;;;;;12.75;100.00;100158.56;88460;273;137346;-74
2023/10/30 06:38:59;;;;;;;9.20;6.20;;;;;;;12.76;100.00;100160.91;88402;273;22529;-75
2023/10/30 06:41:00;;;;;;;8.60;5.60;;;;;;;12.77;100.00;100165.42;88338;273;137130;-73
2023/10/30 06:43:02;;;;;;;13.20;7.60;;;;;;;12.81;100.00;100166.96;88446;273;25171;-73
2023/10/30 06:45:04;;;;;;;10.90;6.30;;;;;;;12.79;100.00;100157.53;88193;274;136945;-75
2023/10/30 06:47:07;;;;;;;9.90;6.30;;;;;;;12.89;100.00;100157.19;88644;274;24058;-75
2023/10/30 06:49:09;;;;;;;8.40;5.70;;;;;;;12.95;100.00;100157.34;88265;281;138744;-74
2023/10/30 06:51:11;;;;;;;6.90;5.50;;;;;;;13.00;100.00;100154.99;88349;280;24085;-72
2023/10/30 06:53:13;;;;;;;8.20;6.60;;;;;;;13.05;100.00;100160.10;88404;280;137023;-75
2023/10/30 06:55:15;;;;;;;10.40;6.00;;;;;;;13.11;100.00;100159.54;89436;273;22741;-73
2023/10/30 06:57:16;;;;;;;9.80;5.60;;;;;;;13.15;100.00;100159.27;89342;277;138372;-74
2023/10/30 06:59:18;;;;;;;6.60;4.90;;;;;;;13.22;100.00;100165.00;89569;273;22543;-72
2023/10/30 07:01:20;;;;;;;8.00;6.30;;;;;;;13.26;100.00;100157.12;89421;277;136914;-74
2023/10/30 07:03:23;;;;;;;7.20;5.10;;;;;;;13.30;100.00;100160.16;89557;280;23637;-76
2023/10/30 07:05:25;;;;;;;8.50;5.30;;;;;;;13.30;100.00;100153.71;89090;273;137227;-75
2023/10/30 07:07:27;;;;;;;7.80;5.50;;;;;;;13.30;100.00;100149.96;89011;281;26085;-75
2023/10/30 07:09:29;;;;;;;5.10;4.60;;;;;;;13.31;100.00;100153.95;88411;273;137522;-74
2023/10/30 07:11:30;;;;;;;8.70;5.90;;;;;;;13.31;100.00;100154.75;88453;273;22530;-74
2023/10/30 07:13:34;;;;;;;8.50;6.10;;;;;;;13.32;100.00;100158.66;88308;272;137012;-76
2023/10/30 07:15:35;;;;;;;12.00;5.80;;;;;;;13.31;100.00;100151.12;88289;280;22602;-73
2023/10/30 07:17:37;;;;;;;11.90;6.30;;;;;;;13.31;100.00;100152.64;88376;276;136635;-70
2023/10/30 07:19:39;;;;;;;10.10;6.80;;;;;;;13.32;100.00;100153.88;88520;273;26305;-71
2023/10/30 07:21:41;;;;;;;7.30;5.90;;;;;;;13.34;100.00;100157.91;88312;276;136404;-76
2023/10/30 07:23:47;;;;;;;6.60;6.00;;;;;;;13.33;100.00;100152.70;88334;272;22537;-76
2023/10/30 07:25:49;;;;;;;7.70;6.60;;;;;;;13.36;100.00;100156.66;88236;272;137201;-76
2023/10/30 07:27:51;;;;;;;10.60;5.00;;;;;;;13.39;100.00;100157.19;88439;273;25190;-71
2023/10/30 07:29:53;;;;;;;7.40;4.90;;;;;;;13.43;100.00;100157.09;88311;276;137230;-74
2023/10/30 07:31:55;;;;;;;6.30;5.70;;;;;;;13.50;100.00;100157.23;88441;280;22619;-75
2023/10/30 07:33:58;;;;;;;7.10;5.10;;;;;;;13.52;100.00;100144.23;88371;280;137806;-74
2023/10/30 07:36:01;;;;;;;9.10;5.80;;;;;;;13.70;100.00;100152.05;88344;272;25198;-77
2023/10/30 07:38:03;;;;;;;9.10;5.30;;;;;;;13.78;100.00;100147.59;88337;280;22534;-73
2023/10/30 07:40:06;;;;;;;8.70;5.40;;;;;;;13.85;100.00;100147.92;88268;277;137133;-73
2023/10/30 07:42:08;;;;;;;14.60;6.10;;;;;;;13.92;100.00;100148.05;88534;273;22770;-75
2023/10/30 07:44:10;;;;;;;7.60;5.70;;;;;;;13.97;100.00;100147.98;88383;272;138310;-76
2023/10/30 07:46:13;;;;;;;7.20;6.00;;;;;;;13.99;100.00;100149.50;88494;273;25118;-76
2023/10/30 07:48:16;;;;;;;11.60;6.50;;;;;;;14.00;100.00;100150.36;88437;276;136680;-71
2023/10/30 07:50:18;;;;;;;7.80;5.90;;;;;;;13.99;100.00;100149.38;88574;272;25383;-78
2023/10/30 07:52:20;;;;;;;9.20;5.80;;;;;;;13.95;100.00;100155.05;88314;280;136735;-74
2023/10/30 07:54:22;;;;;;;7.80;5.10;;;;;;;13.93;100.00;100152.63;88364;280;22618;-76
2023/10/30 07:56:25;;;;;;;8.50;7.00;;;;;;;13.91;100.00;100151.39;88296;274;136481;-75
2023/10/30 07:58:27;;;;;;;7.00;5.60;;;;;;;13.90;100.00;100153.14;88408;272;25201;-75
2023/10/30 08:00:29;;;;;;;10.00;5.60;;;;;;;13.90;100.00;100154.58;88260;277;136109;-73
2023/10/30 08:02:41;;;;;;;7.40;5.30;;;;;;;13.83;100.00;100140.77;88345;273;22530;-74
2023/10/30 08:04:43;;;;;;;6.10;5.30;;;;;;;13.89;100.00;100152.06;88472;276;137119;-79
2023/10/30 08:06:45;;;;;;;11.70;6.50;;;;;;;13.89;100.00;100151.91;88601;272;22619;-84
2023/10/30 08:08:48;;;;;;;7.60;5.80;;;;;;;13.86;100.00;100152.95;88657;276;138174;-84
2023/10/30 08:10:50;;;;;;;18.20;7.90;;;;;;;13.85;100.00;100152.21;88884;277;25113;-84
2023/10/30 08:12:52;;;;;;;8.40;5.60;;;;;;;13.84;100.00;100155.60;88488;277;137130;-84
2023/10/30 08:14:55;;;;;;;7.90;5.60;;;;;;;13.83;100.00;100151.28;88437;272;22584;-82
2023/10/30 08:18:15;;;;;;;7.50;5.10;;;;;;;13.74;100.00;100157.84;86734;305;603567;-78
2023/10/30 08:20:18;;;;;;;8.90;5.70;;;;;;;13.73;100.00;100155.20;87750;285;135938;-83
2023/10/30 08:22:20;;;;;;;9.70;5.30;;;;;;;13.75;100.00;100153.62;87870;285;22571;-84
2023/10/30 08:24:21;;;;;;;8.70;5.60;;;;;;;13.78;100.00;100153.00;87617;285;136196;-83
2023/10/30 08:26:25;;;;;;;10.10;5.80;;;;;;;13.80;100.00;100152.11;87865;287;25262;-83
2023/10/30 08:28:27;;;;;;;10.30;5.90;;;;;;;13.86;100.00;100153.98;88068;277;136189;-82
2023/10/30 08:30:29;;;;;;;8.40;5.20;;;;;;;13.91;100.00;100154.29;88108;286;23868;-83
2023/10/30 08:32:31;;;;;;;7.80;5.00;;;;;;;13.97;100.00;100155.56;88160;281;657172;-70
2023/10/30 08:34:33;;;;;;;6.90;5.40;;;;;;;14.03;100.00;100155.41;89871;276;22478;-71
2023/10/30 08:36:35;;;;;;;6.50;5.20;;;;;;;14.06;100.00;100142.48;89572;275;136669;-83
2023/10/30 08:38:39;;;;;;;14.80;4.90;;;;;;;14.18;100.00;100150.08;88358;276;24296;-84
2023/10/30 08:40:40;;;;;;;5.90;4.40;;;;;;;14.24;100.00;100148.02;88237;276;138441;-81
2023/10/30 08:42:42;;;;;;;6.30;4.00;;;;;;;14.30;100.00;100148.21;88251;275;22617;-74
2023/10/30 08:44:44;;;;;;;6.50;4.70;;;;;;;14.34;100.00;100140.04;88123;282;138616;-75
2023/10/30 08:46:46;;;;;;;7.70;4.70;;;;;;;14.41;100.00;100142.90;88169;277;22536;-76
2023/10/30 08:48:49;;;;;;;6.60;4.30;;;;;;;14.46;100.00;100140.26;88138;275;136121;-75
2023/10/30 08:50:51;;;;;;;11.50;4.60;;;;;;;14.53;100.00;100139.09;88193;275;22558;-78
2023/10/30 08:52:52;;;;;;;7.10;4.60;;;;;;;14.61;100.00;100137.56;88175;275;136438;-73
2023/10/30 08:54:54;;;;;;;6.30;4.00;;;;;;;14.59;100.00;100119.89;88301;275;24218;-74
2023/10/30 08:56:57;;;;;;;7.70;4.10;;;;;;;14.73;100.00;100133.02;88247;275;135945;-78
2023/10/30 08:59:15;;;;;;;5.30;3.70;;;;;;;14.79;100.00;100132.71;88335;280;23413;-74
2023/10/30 09:01:17;;;;;;;9.00;4.30;;;;;;;14.83;100.00;100129.44;88209;275;136034;-73
2023/10/30 09:03:19;;;;;;;5.10;4.00;;;;;;;14.91;100.00;100132.30;88274;279;25145;-76
2023/10/30 09:05:21;;;;;;;5.30;3.40;;;;;;;14.98;99.86;100132.89;88901;276;136117;-77
2023/10/30 09:07:23;;;;;;;6.90;4.40;;;;;;;15.02;99.70;100128.14;88096;275;23902;-75
2023/10/30 09:09:25;;;;;;;9.00;5.10;;;;;;;15.05;99.17;100131.86;88114;279;138019;-73
2023/10/30 09:11:27;;;;;;;7.80;4.70;;;;;;;15.10;99.17;100127.52;88379;282;25165;-78
2023/10/30 09:13:28;;;;;;;10.00;3.60;;;;;;;15.14;98.37;100121.44;88187;276;135893;-74
2023/10/30 09:15:30;;;;;;;4.20;3.10;;;;;;;15.16;97.80;100117.72;88405;274;22529;-76
2023/10/30 09:17:32;;;;;;;6.10;3.80;;;;;;;15.20;97.82;100116.00;88596;274;135834;-73
2023/10/30 09:19:35;;;;;;;5.90;3.70;;;;;;;15.26;98.05;100115.52;88367;278;22548;-76
2023/10/30 09:21:38;;;;;;;8.30;4.70;;;;;;;15.34;97.73;100117.13;88212;274;136030;-73
2023/10/30 09:23:43;;;;;;;4.80;3.90;;;;;;;15.41;97.36;100119.39;88586;275;25085;-78